Time;durP1;ratioP1;P1;durP2;ratioP2;P2;SDS_P1;SDS_P2;PMS_P1;PMS_P2;Temp;Humidity;BMP_temperature;BMP_pressure;BME280_temperature;BME280_humidity;BME280_pressure;Samples;Min_cycle;Max_cycle;Signal;HPM_P1;HPM_P2
2021/04/24 00:01:31;;;;;;;5.73;2.70;;;8.50;73.20;;;;;;5100619;28;20842;-72
2021/04/24 00:04:00;;;;;;;2.23;2.07;;;8.50;73.20;;;;;;5101669;28;20202;-72
2021/04/24 00:06:27;;;;;;;3.33;2.13;;;8.50;73.30;;;;;;5100167;28;20178;-72
2021/04/24 00:08:53;;;;;;;5.53;2.20;;;8.40;73.60;;;;;;5096963;28;20572;-71
2021/04/24 00:11:20;;;;;;;2.53;2.30;;;8.40;73.50;;;;;;5100879;28;20209;-72
2021/04/24 00:13:46;;;;;;;5.87;2.43;;;8.40;73.70;;;;;;5101824;28;20198;-71
2021/04/24 00:16:12;;;;;;;2.83;2.20;;;8.30;73.50;;;;;;5101671;28;20186;-71
2021/04/24 00:18:38;;;;;;;2.53;2.43;;;8.30;73.60;;;;;;5098068;28;20727;-72
2021/04/24 00:21:05;;;;;;;4.40;2.80;;;8.30;73.60;;;;;;5103320;28;20262;-71
2021/04/24 00:23:31;;;;;;;5.67;2.17;;;8.30;73.70;;;;;;5102774;28;20178;-72
2021/04/24 00:25:57;;;;;;;4.50;2.30;;;8.20;73.50;;;;;;5103359;28;20185;-71
2021/04/24 00:28:23;;;;;;;3.23;2.07;;;8.20;73.40;;;;;;5100726;28;20238;-71
2021/04/24 00:30:49;;;;;;;4.47;2.60;;;8.20;73.40;;;;;;5098329;28;20213;-71
2021/04/24 00:33:14;;;;;;;3.30;2.60;;;8.20;73.30;;;;;;5101034;28;20264;-70
2021/04/24 00:35:40;;;;;;;5.33;3.10;;;8.20;73.40;;;;;;5099174;28;20174;-72
2021/04/24 00:38:07;;;;;;;3.00;2.70;;;8.10;73.40;;;;;;5097260;28;20239;-73
2021/04/24 00:40:32;;;;;;;5.10;2.63;;;8.10;73.60;;;;;;5096452;28;20192;-72
2021/04/24 00:42:58;;;;;;;3.70;2.57;;;8.10;73.50;;;;;;5101032;28;20206;-72
2021/04/24 00:45:25;;;;;;;3.57;2.03;;;8.10;73.70;;;;;;5099608;28;20189;-72
2021/04/24 00:47:52;;;;;;;3.03;2.80;;;8.10;73.60;;;;;;5101395;28;20269;-72
2021/04/24 00:50:26;;;;;;;5.77;2.83;;;8.10;73.70;;;;;;5095656;28;20217;-71
2021/04/24 00:52:52;;;;;;;3.13;2.07;;;8.00;73.70;;;;;;5098259;28;20208;-71
2021/04/24 00:55:17;;;;;;;2.37;2.00;;;8.00;73.60;;;;;;5099500;28;20177;-70
2021/04/24 00:57:44;;;;;;;2.27;2.07;;;8.00;73.70;;;;;;5101778;28;20178;-72
2021/04/24 01:00:13;;;;;;;4.33;2.90;;;8.00;73.70;;;;;;5076287;28;20691;-72
2021/04/24 01:02:39;;;;;;;2.47;1.87;;;8.00;73.80;;;;;;5098067;28;20285;-72
2021/04/24 01:05:11;;;;;;;3.00;2.70;;;8.00;73.50;;;;;;5097973;28;20213;-71
2021/04/24 01:07:36;;;;;;;3.33;1.93;;;7.90;73.70;;;;;;5096981;28;20177;-72
2021/04/24 01:10:05;;;;;;;2.10;2.00;;;7.90;73.60;;;;;;5103510;28;20733;-72
2021/04/24 01:12:31;;;;;;;4.97;2.27;;;7.90;73.60;;;;;;5098427;28;20189;-72
2021/04/24 01:14:57;;;;;;;5.57;2.40;;;7.90;73.80;;;;;;5101593;28;20260;-72
2021/04/24 01:17:22;;;;;;;1.97;1.83;;;7.80;73.50;;;;;;5097339;28;20701;-72
2021/04/24 01:19:48;;;;;;;3.43;2.57;;;7.80;73.60;;;;;;5093932;28;20190;-72
2021/04/24 01:22:14;;;;;;;8.80;2.40;;;7.80;73.70;;;;;;5100853;28;20173;-72
2021/04/24 01:24:40;;;;;;;3.00;2.33;;;7.80;73.60;;;;;;5099748;28;20227;-72
2021/04/24 01:27:06;;;;;;;2.97;2.70;;;7.80;73.80;;;;;;5102245;28;20181;-72
2021/04/24 01:29:34;;;;;;;3.23;2.20;;;7.80;73.80;;;;;;5099114;28;20200;-72
2021/04/24 01:32:00;;;;;;;5.10;1.93;;;7.80;73.90;;;;;;5097395;28;20180;-72
2021/04/24 01:34:27;;;;;;;2.50;2.27;;;7.80;74.10;;;;;;5093431;28;20185;-72
2021/04/24 01:36:56;;;;;;;4.23;2.20;;;7.80;74.10;;;;;;5097716;28;20177;-72
2021/04/24 01:39:22;;;;;;;2.00;1.90;;;7.70;74.10;;;;;;5096817;28;20186;-72
2021/04/24 01:41:47;;;;;;;5.83;2.20;;;7.70;74.20;;;;;;5094956;28;20564;-72
2021/04/24 01:44:13;;;;;;;3.23;1.93;;;7.70;74.30;;;;;;5098614;28;20184;-72
2021/04/24 01:46:39;;;;;;;3.23;1.77;;;7.60;74.40;;;;;;5100062;28;20182;-72
2021/04/24 01:49:04;;;;;;;5.00;2.57;;;7.50;74.60;;;;;;5099790;28;20181;-71
2021/04/24 01:51:30;;;;;;;2.33;2.13;;;7.50;74.80;;;;;;5103634;28;20499;-71
2021/04/24 01:53:56;;;;;;;3.00;2.80;;;7.40;75.10;;;;;;5101127;28;20178;-71
2021/04/24 01:56:22;;;;;;;2.57;1.87;;;7.30;75.20;;;;;;5103914;28;20186;-71
2021/04/24 01:58:51;;;;;;;3.53;2.03;;;7.30;75.70;;;;;;5096179;28;20208;-71
2021/04/24 02:01:17;;;;;;;3.93;1.93;;;7.30;75.80;;;;;;5098528;28;20583;-71
2021/04/24 02:03:47;;;;;;;3.90;2.00;;;7.20;75.90;;;;;;5100377;28;20185;-71
2021/04/24 02:06:13;;;;;;;3.07;2.50;;;7.20;76.20;;;;;;5100861;28;20263;-71
2021/04/24 02:08:43;;;;;;;2.27;2.07;;;7.20;76.30;;;;;;5101113;28;20692;-72
2021/04/24 02:11:10;;;;;;;6.87;2.23;;;7.20;76.60;;;;;;5103082;28;20229;-71
2021/04/24 02:13:42;;;;;;;2.93;2.00;;;7.20;76.80;;;;;;5102707;28;20676;-72
2021/04/24 02:16:10;;;;;;;5.37;2.30;;;7.10;77.00;;;;;;5100648;28;20178;-72
2021/04/24 02:18:36;;;;;;;4.27;1.90;;;7.10;77.20;;;;;;5098258;28;20573;-73
2021/04/24 02:21:03;;;;;;;4.73;2.67;;;7.00;77.60;;;;;;5101158;28;20185;-72
2021/04/24 02:23:33;;;;;;;2.77;1.87;;;7.00;77.70;;;;;;5101723;28;20241;-71
2021/04/24 02:26:00;;;;;;;3.00;2.80;;;6.90;77.90;;;;;;5102213;28;20191;-71
2021/04/24 02:28:25;;;;;;;3.90;2.67;;;6.90;78.10;;;;;;5103327;28;20576;-71
2021/04/24 02:30:51;;;;;;;4.77;2.57;;;6.80;78.10;;;;;;5103567;28;20206;-71
2021/04/24 02:33:17;;;;;;;2.57;2.37;;;6.80;78.20;;;;;;5097747;28;20201;-71
2021/04/24 02:35:56;;;;;;;4.83;2.43;;;6.80;78.40;;;;;;5100694;28;20209;-71
2021/04/24 02:38:33;;;;;;;2.17;2.00;;;6.70;78.40;;;;;;5100691;28;20692;-71
2021/04/24 02:41:02;;;;;;;2.33;1.80;;;6.70;78.80;;;;;;5102313;28;20226;-71
2021/04/24 02:43:29;;;;;;;5.83;2.90;;;6.70;79.20;;;;;;5098652;28;20197;-71
2021/04/24 02:45:54;;;;;;;2.43;2.23;;;6.60;79.30;;;;;;5104313;28;20308;-71
2021/04/24 02:48:21;;;;;;;4.77;2.53;;;6.60;79.40;;;;;;5103848;28;20190;-72
2021/04/24 02:50:48;;;;;;;2.17;2.07;;;6.60;79.30;;;;;;5105408;28;20221;-71
2021/04/24 02:53:15;;;;;;;4.33;2.30;;;6.60;79.60;;;;;;5099910;28;20185;-71
2021/04/24 02:55:42;;;;;;;3.83;2.30;;;6.60;79.50;;;;;;5102499;28;20178;-72
2021/04/24 02:58:08;;;;;;;3.27;2.00;;;6.50;79.20;;;;;;5096565;28;20188;-71
2021/04/24 03:00:34;;;;;;;2.30;2.00;;;6.50;79.30;;;;;;5101998;28;20218;-71
2021/04/24 03:03:02;;;;;;;6.13;2.17;;;6.50;79.60;;;;;;5098813;28;20264;-72
2021/04/24 03:05:28;;;;;;;2.70;2.47;;;6.40;79.70;;;;;;5099018;28;20668;-70
2021/04/24 03:07:54;;;;;;;2.43;2.23;;;6.50;79.50;;;;;;5097555;28;20183;-71
2021/04/24 03:10:20;;;;;;;1.70;1.57;;;6.50;79.50;;;;;;5101810;28;20235;-71
2021/04/24 03:12:46;;;;;;;3.03;2.47;;;6.40;79.80;;;;;;5101428;28;20272;-71
2021/04/24 03:15:12;;;;;;;3.43;1.73;;;6.40;80.20;;;;;;5106051;28;20178;-72
2021/04/24 03:17:37;;;;;;;3.60;1.63;;;6.40;80.60;;;;;;5094898;28;20201;-72
2021/04/24 03:20:06;;;;;;;3.80;2.10;;;6.40;81.00;;;;;;5101414;28;20185;-72
2021/04/24 03:22:32;;;;;;;3.03;2.27;;;6.40;81.10;;;;;;5104340;28;20611;-72
2021/04/24 03:24:58;;;;;;;6.00;2.27;;;6.40;81.20;;;;;;5102878;28;20323;-72
2021/04/24 03:27:23;;;;;;;2.70;2.50;;;6.40;81.20;;;;;;5098854;28;20186;-72
2021/04/24 03:29:49;;;;;;;3.33;1.93;;;6.40;81.20;;;;;;5096855;28;20603;-72
2021/04/24 03:32:15;;;;;;;2.10;1.83;;;6.40;81.20;;;;;;5098175;28;20209;-72
2021/04/24 03:34:40;;;;;;;7.73;2.57;;;6.40;81.40;;;;;;5097189;28;20186;-72
2021/04/24 03:37:06;;;;;;;4.90;2.37;;;6.40;81.40;;;;;;5099094;28;20236;-73
2021/04/24 03:39:32;;;;;;;2.60;2.40;;;6.30;81.10;;;;;;5103474;28;20221;-72
2021/04/24 03:41:57;;;;;;;2.90;2.63;;;6.30;81.00;;;;;;5098769;28;20192;-72
2021/04/24 03:44:23;;;;;;;2.50;1.80;;;6.30;81.10;;;;;;5102061;28;20182;-72
2021/04/24 03:46:49;;;;;;;4.93;1.90;;;6.30;81.30;;;;;;5097389;28;20653;-72
2021/04/24 03:49:14;;;;;;;8.63;2.40;;;6.30;81.30;;;;;;5097380;28;20192;-72
2021/04/24 03:51:40;;;;;;;2.60;2.40;;;6.30;81.20;;;;;;5101135;28;20210;-72
2021/04/24 03:54:07;;;;;;;3.27;2.13;;;6.30;81.10;;;;;;5103124;28;20268;-72
2021/04/24 03:56:34;;;;;;;4.30;2.80;;;6.30;81.00;;;;;;5097549;28;20181;-72
2021/04/24 03:59:00;;;;;;;2.17;1.97;;;6.30;80.90;;;;;;5096163;28;20178;-72
2021/04/24 04:01:26;;;;;;;3.20;2.40;;;6.30;80.70;;;;;;5101998;28;20174;-72
2021/04/24 04:03:52;;;;;;;3.07;1.70;;;6.40;80.80;;;;;;5099125;28;20189;-72
2021/04/24 04:06:17;;;;;;;1.60;1.47;;;6.40;81.00;;;;;;5102560;28;20671;-72
2021/04/24 04:08:43;;;;;;;2.40;2.20;;;6.40;80.80;;;;;;5103394;28;20193;-72
2021/04/24 04:11:09;;;;;;;2.07;1.93;;;6.50;80.00;;;;;;5097293;28;20643;-71
2021/04/24 04:13:34;;;;;;;4.40;2.20;;;6.50;79.30;;;;;;5101187;28;20192;-71
2021/04/24 04:16:00;;;;;;;4.10;2.47;;;6.50;79.20;;;;;;5098533;28;20175;-71
2021/04/24 04:18:26;;;;;;;4.20;2.40;;;6.60;79.10;;;;;;5090386;28;20185;-71
2021/04/24 04:20:53;;;;;;;5.53;2.37;;;6.60;78.70;;;;;;5094465;28;20209;-72
2021/04/24 04:23:20;;;;;;;2.10;1.97;;;6.70;78.40;;;;;;5101617;28;20250;-72
2021/04/24 04:25:46;;;;;;;2.50;2.40;;;6.70;78.20;;;;;;5098719;28;20178;-72
2021/04/24 04:28:13;;;;;;;10.40;2.63;;;6.80;78.20;;;;;;5104086;28;20173;-72
2021/04/24 04:30:40;;;;;;;3.00;2.70;;;6.80;78.00;;;;;;5100283;28;20245;-72
2021/04/24 04:33:07;;;;;;;1.90;1.80;;;6.90;77.70;;;;;;5094655;28;20265;-72
2021/04/24 04:35:34;;;;;;;2.53;2.37;;;6.90;77.90;;;;;;5096923;28;20178;-72
2021/04/24 04:38:00;;;;;;;2.57;2.37;;;7.00;77.50;;;;;;5098516;28;20230;-72
2021/04/24 04:40:26;;;;;;;2.10;1.97;;;7.00;77.30;;;;;;5094939;28;20700;-72
2021/04/24 04:42:52;;;;;;;6.77;2.57;;;7.10;77.00;;;;;;5098463;28;20205;-72
2021/04/24 04:45:19;;;;;;;7.73;2.50;;;7.10;76.90;;;;;;5101350;28;20909;-72
2021/04/24 04:47:46;;;;;;;4.20;2.07;;;7.20;77.20;;;;;;5101950;28;20234;-73
2021/04/24 04:50:15;;;;;;;3.27;2.20;;;7.20;77.40;;;;;;5098326;28;20246;-72
2021/04/24 04:52:42;;;;;;;1.90;1.80;;;7.30;77.50;;;;;;5103039;28;20188;-72
2021/04/24 04:55:09;;;;;;;2.37;2.17;;;7.40;77.40;;;;;;5096853;28;20178;-72
2021/04/24 04:57:35;;;;;;;3.80;2.33;;;7.40;77.10;;;;;;5100716;28;20548;-72
2021/04/24 05:00:06;;;;;;;4.47;2.77;;;7.50;76.50;;;;;;5100290;28;20186;-72
2021/04/24 05:02:31;;;;;;;2.30;2.10;;;7.50;76.40;;;;;;5096499;28;20205;-72
2021/04/24 05:04:57;;;;;;;2.90;2.20;;;7.60;76.50;;;;;;5096518;28;20213;-72
2021/04/24 05:07:23;;;;;;;2.17;2.07;;;7.70;76.70;;;;;;5096932;28;20189;-72
2021/04/24 05:09:48;;;;;;;5.20;2.73;;;7.70;76.90;;;;;;5100881;28;20177;-72
2021/04/24 05:12:14;;;;;;;3.17;2.47;;;7.80;76.70;;;;;;5102105;28;20310;-72
2021/04/24 05:14:40;;;;;;;6.37;2.70;;;7.90;76.80;;;;;;5102701;28;20224;-72
2021/04/24 05:17:05;;;;;;;6.77;2.90;;;7.90;76.50;;;;;;5094520;28;20199;-73
2021/04/24 05:19:31;;;;;;;4.00;3.30;;;8.00;76.40;;;;;;5099824;28;20562;-72
2021/04/24 05:21:57;;;;;;;7.80;3.37;;;8.00;76.30;;;;;;5102706;28;20185;-72
2021/04/24 05:24:24;;;;;;;6.30;3.23;;;8.10;74.50;;;;;;5094347;28;20186;-73
2021/04/24 05:26:50;;;;;;;4.00;3.30;;;8.20;74.60;;;;;;5098131;28;20173;-73
2021/04/24 05:29:16;;;;;;;4.10;2.53;;;8.20;74.40;;;;;;5097011;28;20189;-73
2021/04/24 05:31:42;;;;;;;3.00;2.80;;;8.20;73.70;;;;;;5100376;28;20694;-73
2021/04/24 05:34:08;;;;;;;3.40;3.10;;;8.30;73.40;;;;;;5102289;28;20734;-73
2021/04/24 05:36:34;;;;;;;4.67;3.00;;;8.30;73.30;;;;;;5098700;28;20182;-73
2021/04/24 05:38:59;;;;;;;6.03;3.03;;;8.30;73.00;;;;;;5093938;28;20247;-72
2021/04/24 05:41:25;;;;;;;3.37;3.07;;;8.30;72.60;;;;;;5097775;28;20186;-72
2021/04/24 05:43:53;;;;;;;5.93;4.03;;;8.30;72.20;;;;;;5097739;28;20190;-72
2021/04/24 05:46:21;;;;;;;5.20;3.33;;;8.30;72.10;;;;;;5099072;28;20182;-72
2021/04/24 05:48:47;;;;;;;4.77;3.40;;;8.40;72.50;;;;;;5101268;28;20188;-72
2021/04/24 05:51:13;;;;;;;6.23;4.53;;;8.50;72.70;;;;;;5092691;28;20245;-73
2021/04/24 05:53:40;;;;;;;4.03;3.63;;;8.50;72.40;;;;;;5096209;28;20186;-73
2021/04/24 05:56:06;;;;;;;5.93;4.20;;;8.60;72.10;;;;;;5097860;28;20178;-72
2021/04/24 05:58:32;;;;;;;7.53;4.57;;;8.60;72.20;;;;;;5097822;28;20614;-73
2021/04/24 06:00:58;;;;;;;4.80;3.83;;;8.60;71.90;;;;;;5095140;28;20272;-74
2021/04/24 06:03:23;;;;;;;7.03;4.37;;;8.70;72.40;;;;;;5095131;28;20634;-73
2021/04/24 06:05:49;;;;;;;8.50;5.03;;;8.80;72.70;;;;;;5097518;28;20178;-73
2021/04/24 06:08:15;;;;;;;9.47;4.20;;;8.90;71.90;;;;;;5095069;28;20172;-73
2021/04/24 06:10:41;;;;;;;6.97;4.80;;;9.00;71.20;;;;;;5102014;28;20209;-73
2021/04/24 06:13:06;;;;;;;5.37;4.60;;;9.10;71.40;;;;;;5097122;28;20186;-71
2021/04/24 06:15:32;;;;;;;5.63;4.70;;;9.20;71.30;;;;;;5100508;28;20181;-71
2021/04/24 06:17:58;;;;;;;6.53;3.63;;;9.30;71.50;;;;;;5098005;28;20189;-71
2021/04/24 06:20:23;;;;;;;5.60;3.93;;;9.40;70.20;;;;;;5094684;28;20265;-71
2021/04/24 06:22:49;;;;;;;6.13;3.63;;;9.50;70.20;;;;;;5100429;28;20178;-71
2021/04/24 06:25:27;;;;;;;3.87;3.33;;;9.60;70.10;;;;;;5099679;28;20185;-72
2021/04/24 06:27:54;;;;;;;8.37;2.67;;;9.80;70.60;;;;;;5095266;28;20181;-71
2021/04/24 06:30:22;;;;;;;6.07;3.30;;;9.90;70.30;;;;;;5101411;28;20212;-72
2021/04/24 06:32:50;;;;;;;3.87;3.13;;;10.10;69.90;;;;;;5095210;28;20175;-71
2021/04/24 06:35:16;;;;;;;3.20;2.90;;;10.20;69.10;;;;;;5099610;28;20326;-71
2021/04/24 06:37:42;;;;;;;6.47;4.17;;;10.40;68.20;;;;;;5102113;28;20177;-72
2021/04/24 06:40:11;;;;;;;6.30;4.07;;;10.50;68.20;;;;;;5099401;28;20193;-73
2021/04/24 06:42:38;;;;;;;3.65;3.35;;;10.50;67.70;;;;;;5099735;28;20186;-72
2021/04/24 06:45:06;;;;;;;3.20;2.90;;;10.60;67.70;;;;;;5103286;28;20182;-72
2021/04/24 06:47:32;;;;;;;4.13;3.63;;;10.70;67.40;;;;;;5097774;28;20182;-71
2021/04/24 06:49:58;;;;;;;6.63;4.10;;;10.80;66.90;;;;;;5103661;28;20724;-71
2021/04/24 06:52:24;;;;;;;4.57;3.03;;;10.80;66.30;;;;;;5102305;28;20217;-71
2021/04/24 06:54:49;;;;;;;2.72;2.53;;;10.90;65.60;;;;;;5101261;28;20201;-72
2021/04/24 06:57:15;;;;;;;3.30;3.05;;;10.90;64.00;;;;;;5102602;28;21677;-71
2021/04/24 06:59:43;;;;;;;3.95;2.95;;;11.00;64.70;;;;;;5104118;28;20186;-71
2021/04/24 07:02:11;;;;;;;2.90;2.42;;;11.10;65.10;;;;;;5102175;28;20216;-70
2021/04/24 07:04:37;;;;;;;6.32;2.58;;;11.30;65.10;;;;;;5078578;28;20234;-72
2021/04/24 07:07:02;;;;;;;6.07;2.65;;;11.40;64.70;;;;;;5099705;28;20183;-71
2021/04/24 07:09:28;;;;;;;2.92;2.63;;;11.50;64.50;;;;;;5103445;28;20231;-71
2021/04/24 07:11:54;;;;;;;4.70;2.85;;;11.70;63.80;;;;;;5099433;28;20213;-73
2021/04/24 07:14:19;;;;;;;3.80;2.80;;;11.90;63.20;;;;;;5100357;28;20185;-73
2021/04/24 07:16:45;;;;;;;3.17;2.33;;;12.00;63.50;;;;;;5100847;28;20181;-71
2021/04/24 07:19:11;;;;;;;2.90;2.78;;;12.20;64.10;;;;;;5095931;28;20177;-71
2021/04/24 07:21:37;;;;;;;2.92;2.30;;;12.30;64.70;;;;;;5099183;28;20186;-71
2021/04/24 07:24:03;;;;;;;6.35;2.85;;;12.50;63.50;;;;;;5097352;28;20177;-71
2021/04/24 07:26:28;;;;;;;5.38;2.75;;;12.70;63.30;;;;;;5102323;28;20273;-70
2021/04/24 07:28:54;;;;;;;8.30;3.20;;;12.90;62.20;;;;;;5113765;27;20178;-71
2021/04/24 07:31:20;;;;;;;2.17;2.05;;;13.00;62.20;;;;;;5100122;28;20225;-70
2021/04/24 07:33:46;;;;;;;3.67;2.72;;;13.20;61.70;;;;;;5101332;28;20188;-70
2021/04/24 07:36:12;;;;;;;3.85;2.17;;;13.30;61.50;;;;;;5098979;28;20189;-70
2021/04/24 07:38:38;;;;;;;4.00;2.70;;;13.50;61.20;;;;;;5096827;28;20179;-70
2021/04/24 07:41:04;;;;;;;3.90;3.35;;;13.70;60.80;;;;;;5099348;28;20190;-71
2021/04/24 07:43:30;;;;;;;3.90;2.85;;;13.80;60.10;;;;;;5097442;28;20573;-71
2021/04/24 07:45:56;;;;;;;5.47;3.30;;;13.80;59.40;;;;;;5098010;28;20272;-70
2021/04/24 07:48:22;;;;;;;3.55;3.03;;;13.80;58.80;;;;;;5096055;28;20746;-72
2021/04/24 07:50:52;;;;;;;4.78;3.13;;;13.80;58.90;;;;;;5097862;28;20214;-70
2021/04/24 07:53:20;;;;;;;5.47;3.03;;;13.80;58.50;;;;;;5097726;28;20185;-72
2021/04/24 07:55:47;;;;;;;2.53;2.38;;;13.90;58.80;;;;;;5099289;28;20181;-74
2021/04/24 07:58:13;;;;;;;3.15;2.78;;;13.90;58.50;;;;;;5097200;28;20181;-74
2021/04/24 08:00:39;;;;;;;4.10;3.30;;;14.00;58.70;;;;;;5093116;28;20181;-73
2021/04/24 08:03:05;;;;;;;3.83;2.92;;;14.10;58.40;;;;;;5094154;28;20177;-72
2021/04/24 08:05:31;;;;;;;3.95;3.13;;;14.30;58.70;;;;;;5091348;28;20182;-72
2021/04/24 08:07:57;;;;;;;5.93;2.97;;;14.40;57.10;;;;;;5093506;28;20393;-75
2021/04/24 08:10:23;;;;;;;2.78;2.58;;;14.50;56.40;;;;;;5092543;28;20758;-72
2021/04/24 08:12:49;;;;;;;8.38;2.33;;;14.60;56.80;;;;;;5093490;28;20269;-74
2021/04/24 08:15:16;;;;;;;4.00;2.63;;;14.60;56.80;;;;;;5093016;28;20273;-74
2021/04/24 08:17:41;;;;;;;6.05;3.05;;;14.70;56.90;;;;;;5097726;28;20185;-75
2021/04/24 08:20:09;;;;;;;3.17;2.47;;;14.80;57.10;;;;;;5090212;28;20563;-72
2021/04/24 08:22:35;;;;;;;3.17;2.20;;;14.90;56.50;;;;;;5093870;28;20235;-71
2021/04/24 08:25:01;;;;;;;3.63;2.33;;;15.10;56.40;;;;;;5071161;28;20182;-72
2021/04/24 08:27:27;;;;;;;3.05;2.70;;;15.20;56.60;;;;;;5093564;28;20736;-71
2021/04/24 08:29:53;;;;;;;2.97;2.50;;;15.40;55.90;;;;;;5093091;28;20182;-73
2021/04/24 08:32:19;;;;;;;4.82;2.63;;;15.60;56.10;;;;;;5092550;28;20191;-72
2021/04/24 08:34:44;;;;;;;2.85;2.50;;;15.80;55.00;;;;;;5096073;28;20264;-78
2021/04/24 08:37:10;;;;;;;6.85;3.00;;;16.00;54.60;;;;;;5095262;28;20904;-72
2021/04/24 08:39:37;;;;;;;2.53;2.33;;;16.20;55.10;;;;;;5073601;28;20182;-72
2021/04/24 08:42:04;;;;;;;3.78;2.20;;;16.30;55.00;;;;;;5100416;28;20209;-72
2021/04/24 08:44:30;;;;;;;3.47;3.22;;;16.50;54.30;;;;;;5100408;28;20527;-72
2021/04/24 08:46:58;;;;;;;2.92;2.78;;;16.50;53.70;;;;;;5097897;28;20675;-72
2021/04/24 08:49:25;;;;;;;3.42;3.00;;;16.30;53.30;;;;;;5095838;28;20190;-71
2021/04/24 08:51:51;;;;;;;6.28;2.33;;;16.10;52.80;;;;;;5097026;28;20597;-71
2021/04/24 08:54:18;;;;;;;4.25;2.95;;;16.00;53.10;;;;;;5097423;28;20732;-72
2021/04/24 08:56:44;;;;;;;3.90;3.60;;;15.90;51.80;;;;;;5095814;28;20943;-71
2021/04/24 08:59:10;;;;;;;2.95;2.70;;;15.90;52.80;;;;;;5098837;28;20193;-71
2021/04/24 09:01:36;;;;;;;4.70;2.30;;;16.00;53.20;;;;;;5097965;28;20670;-71
2021/04/24 09:04:03;;;;;;;2.30;2.15;;;16.20;53.80;;;;;;5093803;28;20206;-70
2021/04/24 09:06:30;;;;;;;3.40;2.72;;;16.50;52.20;;;;;;5092582;28;20178;-71
2021/04/24 09:09:04;;;;;;;3.00;2.78;;;16.60;52.40;;;;;;5091109;28;20220;-72
2021/04/24 09:11:44;;;;;;;5.65;2.92;;;16.80;51.80;;;;;;5095785;28;20244;-72
2021/04/24 09:14:15;;;;;;;3.97;2.55;;;16.90;50.60;;;;;;5100232;28;20658;-71
2021/04/24 09:16:42;;;;;;;2.85;2.28;;;16.70;48.40;;;;;;5099984;28;20592;-72
2021/04/24 09:19:29;;;;;;;3.47;2.63;;;16.50;49.10;;;;;;5101295;28;20176;-71
2021/04/24 09:22:15;;;;;;;5.95;2.92;;;16.50;49.20;;;;;;5096908;28;20192;-72
2021/04/24 09:24:42;;;;;;;3.75;2.10;;;16.40;49.00;;;;;;5096019;28;20201;-72
2021/04/24 09:27:08;;;;;;;3.72;2.67;;;16.40;49.70;;;;;;5095800;28;20244;-72
2021/04/24 09:29:34;;;;;;;2.63;2.42;;;16.50;50.00;;;;;;5093914;28;20266;-71
2021/04/24 09:32:21;;;;;;;4.40;2.50;;;16.80;49.80;;;;;;5090767;28;20231;-71
2021/04/24 09:34:48;;;;;;;3.40;2.83;;;17.00;49.70;;;;;;5075401;28;20676;-72
2021/04/24 09:37:19;;;;;;;4.55;2.55;;;17.20;50.60;;;;;;5095232;28;20178;-72
2021/04/24 09:39:51;;;;;;;1.90;1.83;;;17.30;48.40;;;;;;5097665;28;20196;-73
2021/04/24 09:42:40;;;;;;;4.05;2.65;;;17.50;49.70;;;;;;5095341;28;20179;-72
2021/04/24 09:45:27;;;;;;;3.45;3.15;;;17.70;49.50;;;;;;5097419;28;20177;-73
2021/04/24 09:47:53;;;;;;;2.08;1.98;;;17.80;49.30;;;;;;5095876;28;20182;-72
2021/04/24 09:50:34;;;;;;;4.22;2.95;;;17.90;49.50;;;;;;5096291;28;20297;-73
2021/04/24 09:53:13;;;;;;;3.25;2.97;;;18.00;49.90;;;;;;5079607;28;20574;-73
2021/04/24 09:55:39;;;;;;;2.90;2.70;;;18.10;49.70;;;;;;5095435;28;20219;-72
2021/04/24 09:58:08;;;;;;;2.22;2.15;;;17.90;49.10;;;;;;5092320;28;20808;-73
2021/04/24 10:00:34;;;;;;;5.53;2.40;;;17.80;49.20;;;;;;5077821;28;20599;-72
2021/04/24 10:03:00;;;;;;;3.45;2.50;;;17.60;48.80;;;;;;5096442;28;20189;-72
2021/04/24 10:05:26;;;;;;;3.72;2.78;;;17.60;49.30;;;;;;5093666;28;20202;-72
2021/04/24 10:07:53;;;;;;;6.22;2.58;;;17.50;49.60;;;;;;5076757;28;20573;-72
2021/04/24 10:10:39;;;;;;;2.50;2.40;;;17.50;48.70;;;;;;5096583;28;20690;-72
2021/04/24 10:13:08;;;;;;;5.32;3.03;;;17.40;49.50;;;;;;5079914;28;20679;-72
2021/04/24 10:15:38;;;;;;;6.35;2.20;;;17.40;50.70;;;;;;5100510;28;20174;-71
2021/04/24 10:18:07;;;;;;;4.65;2.67;;;17.30;49.50;;;;;;5085864;28;20674;-72
2021/04/24 10:20:35;;;;;;;3.28;2.67;;;17.20;49.30;;;;;;5098896;28;20192;-71
2021/04/24 10:23:01;;;;;;;4.55;2.67;;;17.10;49.60;;;;;;5102060;28;20234;-72
2021/04/24 10:25:28;;;;;;;4.45;2.70;;;17.10;49.20;;;;;;5103463;28;20198;-71
2021/04/24 10:27:55;;;;;;;4.57;2.80;;;17.00;50.20;;;;;;5099874;28;20186;-71
2021/04/24 10:30:21;;;;;;;2.17;2.08;;;17.00;49.30;;;;;;5102096;28;20719;-71
2021/04/24 10:32:47;;;;;;;4.57;2.70;;;17.10;49.00;;;;;;5104668;28;20234;-71
2021/04/24 10:35:14;;;;;;;4.15;2.95;;;17.20;49.90;;;;;;5100611;28;20189;-73
2021/04/24 10:37:44;;;;;;;2.63;2.42;;;17.40;50.50;;;;;;5097681;28;20239;-72
2021/04/24 10:40:11;;;;;;;4.70;2.40;;;17.50;49.90;;;;;;5097957;28;20175;-72
2021/04/24 10:42:37;;;;;;;2.50;2.30;;;17.70;49.10;;;;;;5100935;28;20193;-72
2021/04/24 10:45:06;;;;;;;2.35;2.25;;;17.80;49.00;;;;;;5099290;28;20240;-72
2021/04/24 10:47:38;;;;;;;2.65;2.40;;;17.90;50.20;;;;;;5095657;28;20200;-72
2021/04/24 10:50:06;;;;;;;2.15;2.00;;;17.90;49.50;;;;;;5097624;28;20305;-72
2021/04/24 10:52:31;;;;;;;2.90;2.70;;;17.90;50.10;;;;;;5097240;28;20184;-71
2021/04/24 10:55:12;;;;;;;2.70;2.50;;;17.90;49.00;;;;;;5102234;28;20265;-73
2021/04/24 10:57:38;;;;;;;2.78;2.58;;;17.80;48.20;;;;;;5102671;28;20242;-72
2021/04/24 11:00:21;;;;;;;3.55;2.83;;;17.60;50.10;;;;;;5105349;28;20682;-71
2021/04/24 11:02:49;;;;;;;2.95;2.58;;;17.50;48.50;;;;;;5097199;28;20581;-72
2021/04/24 11:05:24;;;;;;;3.17;2.42;;;17.20;49.40;;;;;;5100525;28;20610;-73
2021/04/24 11:08:19;;;;;;;5.32;2.80;;;17.00;48.60;;;;;;5102470;28;20185;-73
2021/04/24 11:11:06;;;;;;;3.38;2.90;;;16.60;49.00;;;;;;5102447;28;20205;-73
2021/04/24 11:13:51;;;;;;;5.15;2.33;;;16.30;49.30;;;;;;5104521;28;20270;-71
2021/04/24 11:16:18;;;;;;;4.13;2.70;;;16.10;50.20;;;;;;5102926;28;20173;-71
2021/04/24 11:18:45;;;;;;;2.47;2.13;;;16.00;51.00;;;;;;5100582;28;20246;-71
2021/04/24 11:21:21;;;;;;;6.05;2.88;;;15.80;50.40;;;;;;5103340;28;20189;-71
2021/04/24 11:23:58;;;;;;;6.22;2.38;;;15.70;50.80;;;;;;5094938;28;20188;-71
2021/04/24 11:26:30;;;;;;;4.50;2.40;;;15.50;50.80;;;;;;5102667;28;20181;-70
2021/04/24 11:29:03;;;;;;;2.00;1.83;;;15.40;52.30;;;;;;5095814;28;20179;-72
2021/04/24 11:31:49;;;;;;;4.88;2.08;;;15.40;51.80;;;;;;5095386;28;20213;-70
2021/04/24 11:34:41;;;;;;;3.40;2.38;;;15.30;51.60;;;;;;5100671;28;20188;-69
2021/04/24 11:40:07;;;;;;;2.72;2.45;;;15.20;52.00;;;;;;5101494;28;20187;-71
2021/04/24 11:42:49;;;;;;;2.45;2.22;;;15.30;52.40;;;;;;5100195;28;20187;-71
2021/04/24 11:45:16;;;;;;;1.98;1.88;;;15.30;52.80;;;;;;5101742;28;20323;-71
2021/04/24 11:47:51;;;;;;;2.58;2.45;;;15.50;54.10;;;;;;5103381;28;20265;-70
2021/04/24 11:50:20;;;;;;;2.45;2.22;;;15.70;54.10;;;;;;5101393;28;20269;-72
2021/04/24 11:52:57;;;;;;;2.30;2.13;;;15.90;53.50;;;;;;5098644;28;20236;-72
2021/04/24 11:55:25;;;;;;;7.40;2.15;;;16.20;53.30;;;;;;5097095;28;20181;-73
2021/04/24 11:58:02;;;;;;;4.18;2.15;;;16.40;53.50;;;;;;5103765;28;20182;-73
2021/04/24 12:00:32;;;;;;;4.40;1.80;;;16.80;52.40;;;;;;5102932;28;20177;-73
2021/04/24 12:02:58;;;;;;;1.70;1.67;;;17.20;52.80;;;;;;5103385;28;20269;-71
2021/04/24 12:05:23;;;;;;;2.60;1.90;;;17.80;51.00;;;;;;5095555;28;20256;-69
2021/04/24 12:07:50;;;;;;;3.35;2.10;;;18.40;51.40;;;;;;5096206;28;20255;-71
2021/04/24 12:10:18;;;;;;;2.00;1.92;;;19.00;50.60;;;;;;5094697;28;20217;-72
2021/04/24 12:12:46;;;;;;;3.05;2.13;;;19.70;50.00;;;;;;5098648;28;20185;-72
2021/04/24 12:15:27;;;;;;;6.53;2.00;;;20.50;49.50;;;;;;5096584;28;20178;-71
2021/04/24 12:17:55;;;;;;;1.92;1.83;;;21.50;48.30;;;;;;5095526;28;20614;-72
2021/04/24 12:20:31;;;;;;;3.28;2.13;;;22.60;47.00;;;;;;5097737;28;20193;-71
2021/04/24 12:22:59;;;;;;;4.85;2.00;;;23.70;45.40;;;;;;5102509;28;20181;-72
2021/04/24 12:25:26;;;;;;;2.38;2.10;;;24.70;44.70;;;;;;5083119;28;20678;-73
2021/04/24 12:27:54;;;;;;;2.85;2.47;;;25.40;44.10;;;;;;5098646;28;20182;-72
2021/04/24 12:30:21;;;;;;;4.45;2.20;;;26.00;43.70;;;;;;5102521;28;20247;-71
2021/04/24 12:33:05;;;;;;;4.18;2.60;;;26.50;41.80;;;;;;5104260;28;20261;-72
2021/04/24 12:35:47;;;;;;;2.33;2.10;;;26.80;42.80;;;;;;5103670;28;20626;-71
2021/04/24 12:38:21;;;;;;;4.00;1.90;;;26.80;42.90;;;;;;5100441;28;20178;-72
2021/04/24 12:40:58;;;;;;;2.28;1.77;;;27.00;42.40;;;;;;5098450;28;20185;-71
2021/04/24 12:43:29;;;;;;;4.55;1.83;;;27.30;40.30;;;;;;5097096;28;20199;-71
2021/04/24 12:46:00;;;;;;;1.65;1.65;;;27.90;41.10;;;;;;5103009;28;20185;-72
2021/04/24 12:48:41;;;;;;;4.03;2.08;;;28.40;38.60;;;;;;5099735;28;20694;-71
2021/04/24 12:51:16;;;;;;;3.85;2.22;;;29.00;38.70;;;;;;5097372;28;20283;-72
2021/04/24 12:53:44;;;;;;;2.88;2.75;;;29.60;39.10;;;;;;5096382;28;20205;-72
2021/04/24 12:56:18;;;;;;;2.58;2.45;;;30.10;40.90;;;;;;5088653;28;20186;-72
2021/04/24 12:58:46;;;;;;;7.93;2.78;;;30.40;38.40;;;;;;5098559;28;20206;-72
2021/04/24 13:01:17;;;;;;;2.67;2.38;;;30.90;37.20;;;;;;5099769;28;20569;-73